Time;durP1;ratioP1;P1;durP2;ratioP2;P2;SDS_P1;SDS_P2;PMS_P1;PMS_P2;Temp;Humidity;BMP_temperature;BMP_pressure;BME280_temperature;BME280_humidity;BME280_pressure;Samples;Min_cycle;Max_cycle;Signal;HPM_P1;HPM_P2
2022/09/16 00:00:31;;;;;;;4.93;3.22;;;;;;;20.29;57.72;100989.34;2095473;28;20041;-75
2022/09/16 00:01:53;;;;;;;5.45;3.10;;;;;;;20.28;57.78;100985.78;2081387;28;20460;-74
2022/09/16 00:03:16;;;;;;;7.35;3.50;;;;;;;20.28;57.77;100982.25;2092947;28;20147;-74
2022/09/16 00:04:47;;;;;;;5.40;3.22;;;;;;;20.26;57.74;100987.63;2089701;28;20083;-74
2022/09/16 00:06:17;;;;;;;6.47;3.28;;;;;;;20.26;57.75;100982.28;2088376;28;20045;-74
2022/09/16 00:07:40;;;;;;;5.60;2.97;;;;;;;20.25;57.93;100977.81;2088098;28;20048;-74
2022/09/16 00:09:04;;;;;;;4.18;3.25;;;;;;;20.23;57.93;100973.41;2086996;28;20041;-74
2022/09/16 00:10:27;;;;;;;4.45;3.00;;;;;;;20.21;58.02;100975.25;2095566;28;20147;-74
2022/09/16 00:11:48;;;;;;;7.72;3.60;;;;;;;20.21;58.17;100964.53;2089674;28;20088;-74
2022/09/16 00:13:11;;;;;;;5.93;3.67;;;;;;;20.20;57.91;100963.63;2087088;28;20045;-74
2022/09/16 00:14:33;;;;;;;4.72;2.97;;;;;;;20.20;57.87;100962.75;2095463;28;20102;-73
2022/09/16 00:15:55;;;;;;;6.53;3.25;;;;;;;20.20;57.89;100957.38;2081514;28;20127;-74
2022/09/16 00:17:18;;;;;;;8.57;3.15;;;;;;;20.20;57.55;100960.97;2084606;28;20049;-73
2022/09/16 00:18:39;;;;;;;5.70;3.35;;;;;;;20.18;57.51;100960.09;2086864;28;20462;-74
2022/09/16 00:20:02;;;;;;;5.18;2.85;;;;;;;20.13;57.78;100953.06;2095126;28;20475;-74
2022/09/16 00:21:25;;;;;;;6.03;3.30;;;;;;;20.11;57.66;100946.84;2097789;28;20445;-74
2022/09/16 00:22:47;;;;;;;5.25;3.22;;;;;;;20.08;57.81;100957.66;2073318;28;20041;-74
2022/09/16 00:24:14;;;;;;;5.68;3.13;;;;;;;19.99;57.82;100956.03;2089961;28;20051;-75
2022/09/16 00:25:35;;;;;;;7.78;3.00;;;;;;;19.87;57.95;100950.91;2081376;28;20120;-74
2022/09/16 00:26:58;;;;;;;5.25;3.10;;;;;;;19.79;58.35;100950.16;2084427;28;20053;-74
2022/09/16 00:28:20;;;;;;;5.97;3.20;;;;;;;19.76;58.18;100959.13;2095294;28;20382;-74
2022/09/16 00:29:43;;;;;;;4.32;3.05;;;;;;;19.75;58.28;100952.03;2090181;28;20103;-74
2022/09/16 00:31:05;;;;;;;5.47;3.25;;;;;;;19.82;58.11;100955.47;2097119;28;20082;-74
2022/09/16 00:32:26;;;;;;;5.82;3.45;;;;;;;19.87;57.99;100957.16;2091446;28;20430;-74
2022/09/16 00:33:49;;;;;;;5.40;3.42;;;;;;;19.95;58.01;100953.44;2088669;28;20045;-74
2022/09/16 00:35:10;;;;;;;5.65;3.00;;;;;;;20.00;57.82;100956.91;2088761;28;20052;-74
2022/09/16 00:36:33;;;;;;;5.22;3.30;;;;;;;20.02;57.40;100955.09;2097054;28;20442;-74
2022/09/16 00:37:54;;;;;;;6.65;3.50;;;;;;;20.04;57.10;100954.13;2083170;28;20050;-74
2022/09/16 00:39:18;;;;;;;5.22;2.95;;;;;;;20.04;56.97;100954.13;2094248;28;20045;-74
2022/09/16 00:40:43;;;;;;;5.10;3.00;;;;;;;20.06;57.23;100952.31;2099605;28;20055;-74
2022/09/16 00:42:06;;;;;;;4.80;3.10;;;;;;;20.06;57.10;100951.44;2083190;28;20132;-74
2022/09/16 00:43:29;;;;;;;4.78;3.25;;;;;;;20.07;57.21;100943.34;2094598;28;20380;-74
2022/09/16 00:44:57;;;;;;;5.43;3.03;;;;;;;20.11;56.90;100946.84;2091393;28;20045;-74
2022/09/16 00:46:23;;;;;;;4.43;3.03;;;;;;;20.11;56.75;100945.06;2097793;28;20470;-74
2022/09/16 00:47:51;;;;;;;5.28;2.65;;;;;;;20.11;56.80;100937.00;2090993;28;20044;-74
2022/09/16 00:49:17;;;;;;;5.03;3.03;;;;;;;20.11;56.54;100933.44;2081109;28;20064;-74
2022/09/16 00:50:47;;;;;;;4.53;2.97;;;;;;;20.16;56.51;100936.91;2087109;28;20060;-74
2022/09/16 00:52:11;;;;;;;3.83;2.85;;;;;;;20.23;56.08;100938.53;2083042;28;20084;-75
2022/09/16 00:53:39;;;;;;;3.97;2.90;;;;;;;20.30;55.86;100940.19;2077995;28;20045;-75
2022/09/16 00:55:08;;;;;;;5.10;2.75;;;;;;;20.35;55.60;100945.50;2096123;28;20045;-75
2022/09/16 00:56:36;;;;;;;5.25;2.80;;;;;;;20.38;55.34;100940.94;2091248;28;20515;-75
2022/09/16 00:58:06;;;;;;;4.03;2.72;;;;;;;20.40;55.16;100944.47;2089140;28;20409;-75
2022/09/16 00:59:30;;;;;;;4.07;2.72;;;;;;;20.41;55.04;100934.63;2081277;28;20432;-75
2022/09/16 01:00:53;;;;;;;3.92;2.83;;;;;;;20.42;54.63;100936.38;2094976;28;20052;-75
2022/09/16 01:02:20;;;;;;;4.55;3.00;;;;;;;20.41;54.49;100935.53;2091249;28;20041;-74
2022/09/16 01:03:45;;;;;;;5.30;2.90;;;;;;;20.39;54.47;100934.66;2097132;28;20044;-75
2022/09/16 01:05:11;;;;;;;4.68;3.20;;;;;;;20.37;54.61;100941.84;2099532;28;20040;-74
2022/09/16 01:06:38;;;;;;;5.10;2.78;;;;;;;20.35;54.45;100948.19;2083085;28;20065;-74
2022/09/16 01:08:01;;;;;;;5.45;2.88;;;;;;;20.31;54.57;100947.31;2095580;28;20056;-74
2022/09/16 01:09:25;;;;;;;4.03;2.78;;;;;;;20.28;54.70;100942.88;2099130;28;20577;-74
2022/09/16 01:10:49;;;;;;;4.10;2.72;;;;;;;20.25;54.46;100948.34;2082886;28;20053;-75
2022/09/16 01:12:11;;;;;;;4.47;2.83;;;;;;;20.23;54.46;100946.59;2086237;28;20045;-75
2022/09/16 01:13:34;;;;;;;3.60;2.63;;;;;;;20.22;54.47;100944.81;2090935;28;20185;-75
2022/09/16 01:14:57;;;;;;;3.78;2.95;;;;;;;20.20;54.71;100950.22;2088510;28;20599;-75
2022/09/16 01:16:28;;;;;;;5.05;2.75;;;;;;;20.19;54.41;100947.56;2088424;28;20079;-75
2022/09/16 01:18:00;;;;;;;5.10;2.65;;;;;;;20.17;54.50;100946.72;2098014;28;20045;-75
2022/09/16 01:19:43;;;;;;;4.78;2.97;;;;;;;20.14;54.70;100954.84;2074601;28;20108;-75
2022/09/16 01:21:32;;;;;;;4.03;2.85;;;;;;;20.12;54.76;100953.97;2099428;28;20113;-75
2022/09/16 01:23:13;;;;;;;4.57;2.83;;;;;;;20.09;54.78;100945.97;2099237;28;20037;-75
2022/09/16 01:24:49;;;;;;;5.35;2.88;;;;;;;20.07;54.92;100942.47;2082698;28;20362;-75
2022/09/16 01:26:49;;;;;;;5.32;3.10;;;;;;;20.05;54.78;100933.56;2097832;28;20086;-75
2022/09/16 01:28:37;;;;;;;3.50;2.33;;;;;;;20.02;54.95;100936.34;2082869;28;20049;-75
2022/09/16 01:30:20;;;;;;;3.75;2.70;;;;;;;20.00;54.70;100931.00;2099266;28;20044;-75
2022/09/16 01:31:48;;;;;;;3.25;2.42;;;;;;;19.99;54.62;100926.53;2074536;28;20041;-75
2022/09/16 01:33:23;;;;;;;6.47;3.13;;;;;;;19.99;54.44;100933.69;2085533;28;20079;-75
2022/09/16 01:34:53;;;;;;;4.07;2.20;;;;;;;19.98;54.39;100930.13;2090938;28;20048;-75
2022/09/16 01:36:33;;;;;;;3.88;2.50;;;;;;;19.97;54.38;100927.47;2089433;28;20053;-74
2022/09/16 01:38:06;;;;;;;4.40;2.92;;;;;;;19.96;54.22;100931.06;2099013;28;20049;-75
2022/09/16 01:39:37;;;;;;;5.13;2.70;;;;;;;19.92;54.59;100932.94;2090821;28;20072;-75
2022/09/16 01:41:06;;;;;;;4.50;2.72;;;;;;;19.89;54.80;100928.50;2097427;28;20049;-74
2022/09/16 01:42:38;;;;;;;4.88;2.83;;;;;;;19.89;55.04;100924.94;2090889;28;20041;-75
2022/09/16 01:44:08;;;;;;;5.03;3.25;;;;;;;19.86;55.26;100927.69;2089460;28;20451;-74
2022/09/16 01:45:43;;;;;;;4.38;2.83;;;;;;;19.85;55.01;100916.09;2090849;28;20098;-74
2022/09/16 01:47:17;;;;;;;4.80;3.08;;;;;;;19.84;54.92;100921.47;2090689;28;20365;-75
2022/09/16 01:48:44;;;;;;;4.47;2.90;;;;;;;19.83;55.17;100927.75;2097904;28;20045;-75
2022/09/16 01:50:17;;;;;;;4.85;2.95;;;;;;;19.82;54.74;100929.53;2090949;28;20052;-75
2022/09/16 01:51:44;;;;;;;3.17;2.40;;;;;;;19.82;54.81;100931.38;2097943;28;20044;-75
2022/09/16 01:53:14;;;;;;;4.65;2.83;;;;;;;19.82;54.75;100929.53;2082645;28;20046;-75
2022/09/16 01:54:43;;;;;;;5.20;3.03;;;;;;;19.81;54.72;100932.28;2095712;28;20075;-75
2022/09/16 01:56:10;;;;;;;3.88;2.67;;;;;;;19.79;55.03;100928.72;2090772;28;20049;-75
2022/09/16 01:57:37;;;;;;;8.13;3.33;;;;;;;19.78;55.08;100927.84;2080490;28;20045;-75
2022/09/16 01:59:05;;;;;;;4.63;2.97;;;;;;;19.79;54.87;100929.63;2094865;28;20542;-75
2022/09/16 02:00:28;;;;;;;6.40;2.97;;;;;;;19.77;54.92;100938.59;2082555;28;20045;-75
2022/09/16 02:01:54;;;;;;;4.25;2.90;;;;;;;19.77;55.05;100936.78;2094069;28;20049;-75
2022/09/16 02:03:23;;;;;;;4.85;2.65;;;;;;;19.76;55.01;100932.34;2090724;28;20103;-75
2022/09/16 02:04:49;;;;;;;3.58;2.38;;;;;;;19.76;54.82;100934.13;2088739;28;20057;-75
2022/09/16 02:06:18;;;;;;;4.63;2.38;;;;;;;19.74;55.03;100936.88;2090655;28;20483;-75
2022/09/16 02:07:43;;;;;;;3.65;2.55;;;;;;;19.75;54.85;100935.06;2088882;28;20045;-75
2022/09/16 02:09:10;;;;;;;3.83;2.40;;;;;;;19.74;54.83;100938.66;2090519;28;20067;-75
2022/09/16 02:10:36;;;;;;;3.85;2.85;;;;;;;19.73;54.58;100937.78;2088672;28;20102;-74
2022/09/16 02:12:05;;;;;;;5.03;2.88;;;;;;;19.73;54.63;100937.78;2088603;28;20049;-75
2022/09/16 02:13:33;;;;;;;5.85;2.80;;;;;;;19.73;54.79;100932.41;2097129;28;20036;-75
2022/09/16 02:15:01;;;;;;;5.55;3.10;;;;;;;19.76;54.59;100935.03;2082292;28;20103;-75
2022/09/16 02:16:31;;;;;;;4.55;2.88;;;;;;;19.78;54.31;100938.56;2078972;28;20156;-74
2022/09/16 02:17:58;;;;;;;3.63;2.70;;;;;;;19.76;54.78;100948.41;2087346;28;20106;-74
2022/09/16 02:19:27;;;;;;;5.63;3.05;;;;;;;19.72;54.88;100943.16;2088581;28;20136;-74
2022/09/16 02:20:50;;;;;;;4.63;3.08;;;;;;;19.66;54.97;100941.47;2097041;28;20040;-74
2022/09/16 02:22:18;;;;;;;4.35;2.80;;;;;;;19.64;55.39;100940.63;2082382;28;20440;-74
2022/09/16 02:23:45;;;;;;;5.18;3.15;;;;;;;19.65;55.47;100938.81;2087024;28;20099;-74
2022/09/16 02:25:10;;;;;;;5.68;2.80;;;;;;;19.64;55.48;100937.94;2090696;28;20114;-74
2022/09/16 02:26:37;;;;;;;4.13;2.75;;;;;;;19.63;55.38;100936.16;2088245;28;20041;-75
2022/09/16 02:28:02;;;;;;;6.30;2.85;;;;;;;19.63;55.70;100944.19;2088715;28;20543;-74
2022/09/16 02:29:29;;;;;;;5.13;2.85;;;;;;;19.61;55.50;100937.13;2088080;28;20041;-74
2022/09/16 02:30:55;;;;;;;4.22;2.83;;;;;;;19.62;55.49;100944.25;2080295;28;20037;-74
2022/09/16 02:32:19;;;;;;;4.75;3.03;;;;;;;19.60;55.34;100933.56;2088556;28;20075;-74
2022/09/16 02:33:47;;;;;;;4.22;2.80;;;;;;;19.59;55.25;100941.63;2096191;28;20048;-74
2022/09/16 02:35:16;;;;;;;5.03;2.80;;;;;;;19.56;55.13;100936.34;2082173;28;20045;-74
2022/09/16 02:36:43;;;;;;;5.15;3.00;;;;;;;19.52;55.37;100943.53;2095249;28;20097;-74
2022/09/16 02:38:10;;;;;;;5.10;2.50;;;;;;;19.51;55.15;100939.06;2090581;28;20534;-74
2022/09/16 02:39:38;;;;;;;4.57;2.47;;;;;;;19.53;54.95;100939.06;2088747;28;20043;-74
2022/09/16 02:41:01;;;;;;;4.45;2.92;;;;;;;19.53;54.70;100939.94;2096888;28;20075;-74
2022/09/16 02:42:24;;;;;;;6.13;3.10;;;;;;;19.54;54.51;100946.19;2082401;28;20095;-74
2022/09/16 02:43:45;;;;;;;5.22;2.75;;;;;;;19.52;54.87;100948.88;2093702;28;20044;-75
2022/09/16 02:45:09;;;;;;;5.75;2.78;;;;;;;19.49;54.95;100954.31;2098778;28;20221;-75
2022/09/16 02:46:40;;;;;;;3.95;2.60;;;;;;;19.48;55.27;100956.09;2090494;28;20037;-74
2022/09/16 02:48:09;;;;;;;3.95;2.85;;;;;;;19.46;55.19;100954.34;2097197;28;20072;-75
2022/09/16 02:49:40;;;;;;;3.72;2.60;;;;;;;19.47;54.78;100961.47;2082197;28;20033;-75
2022/09/16 02:51:15;;;;;;;4.82;2.78;;;;;;;19.47;54.58;100961.47;2087711;28;20092;-75
2022/09/16 02:52:44;;;;;;;4.22;2.67;;;;;;;19.47;54.84;100961.47;2088829;28;20045;-74
2022/09/16 02:54:20;;;;;;;3.75;2.70;;;;;;;19.47;54.82;100966.84;2096834;28;20081;-75
2022/09/16 02:55:53;;;;;;;4.90;3.15;;;;;;;19.45;54.78;100958.78;2090365;28;20093;-74
2022/09/16 02:57:17;;;;;;;6.70;2.90;;;;;;;19.42;54.94;100974.03;2097759;28;20094;-75
2022/09/16 02:58:38;;;;;;;3.78;2.90;;;;;;;19.39;55.18;100974.06;2090198;28;20083;-74
2022/09/16 03:00:02;;;;;;;4.28;2.88;;;;;;;19.36;55.03;100972.31;2095981;28;20158;-74
2022/09/16 03:01:24;;;;;;;4.97;2.70;;;;;;;19.34;55.05;100968.81;2081953;28;20049;-75
2022/09/16 03:02:47;;;;;;;3.75;2.70;;;;;;;19.32;55.18;100973.28;2093240;28;20154;-75
2022/09/16 03:04:13;;;;;;;3.95;2.50;;;;;;;19.33;55.12;100980.41;2081797;28;20503;-74
2022/09/16 03:05:34;;;;;;;3.67;2.40;;;;;;;19.33;54.90;100985.78;2094301;28;20053;-74
2022/09/16 03:06:58;;;;;;;6.05;3.03;;;;;;;19.33;54.96;100990.25;2098369;28;20379;-74
2022/09/16 03:08:20;;;;;;;6.18;2.90;;;;;;;19.31;55.22;100984.03;2098482;28;20492;-74
2022/09/16 03:09:50;;;;;;;8.57;3.17;;;;;;;19.29;55.38;100981.41;2081972;28;20132;-74
2022/09/16 03:11:24;;;;;;;7.60;3.13;;;;;;;19.26;55.58;100984.09;2095325;28;20048;-75
2022/09/16 03:12:56;;;;;;;4.60;2.42;;;;;;;19.25;55.52;100986.81;2098489;28;20053;-74
2022/09/16 03:14:37;;;;;;;5.85;2.75;;;;;;;19.23;55.71;100980.63;2081742;28;20140;-74
2022/09/16 03:16:06;;;;;;;4.03;2.80;;;;;;;19.21;55.77;100980.63;2090082;28;20040;-74
2022/09/16 03:17:52;;;;;;;5.05;2.67;;;;;;;19.21;55.52;100987.78;2088547;28;20514;-74
2022/09/16 03:19:25;;;;;;;5.88;2.75;;;;;;;19.21;55.37;100985.09;2089986;28;20045;-74
2022/09/16 03:20:55;;;;;;;4.40;2.67;;;;;;;19.19;55.22;100982.44;2081740;28;20049;-74
2022/09/16 03:22:29;;;;;;;4.13;2.97;;;;;;;19.18;55.11;100986.03;2095328;28;20040;-74
2022/09/16 03:24:02;;;;;;;4.88;2.55;;;;;;;19.14;55.12;100983.44;2089992;28;20098;-74
2022/09/16 03:25:38;;;;;;;4.40;3.03;;;;;;;19.12;55.17;100983.44;2088899;28;20042;-74
2022/09/16 03:27:13;;;;;;;4.45;2.13;;;;;;;19.11;55.04;100985.22;2090020;28;20139;-74
2022/09/16 03:28:43;;;;;;;5.03;2.58;;;;;;;19.15;54.80;100985.19;2089085;28;20049;-74
2022/09/16 03:30:08;;;;;;;3.33;2.22;;;;;;;19.17;54.47;100983.34;2081889;28;20073;-74
2022/09/16 03:31:33;;;;;;;3.55;2.40;;;;;;;19.20;54.21;100988.69;2093695;28;20097;-74
2022/09/16 03:33:03;;;;;;;4.43;2.53;;;;;;;19.21;54.31;100987.78;2098303;28;20396;-74
2022/09/16 03:34:30;;;;;;;5.00;2.80;;;;;;;19.21;54.21;100982.41;2089970;28;20374;-74
2022/09/16 03:35:57;;;;;;;6.20;2.88;;;;;;;19.21;54.18;100987.78;2096397;28;20064;-74
2022/09/16 03:37:23;;;;;;;5.80;2.67;;;;;;;19.20;54.37;100983.31;2089913;28;20080;-74
2022/09/16 03:38:46;;;;;;;4.47;2.97;;;;;;;19.20;54.41;100983.31;2096054;28;20105;-74
2022/09/16 03:40:12;;;;;;;5.07;2.70;;;;;;;19.17;54.47;100986.03;2089952;28;20048;-74
2022/09/16 03:41:34;;;;;;;4.28;2.60;;;;;;;19.16;54.94;100981.63;2081702;28;20148;-74
2022/09/16 03:42:59;;;;;;;4.32;2.47;;;;;;;19.16;54.76;100982.50;2093072;28;20068;-74
2022/09/16 03:44:21;;;;;;;3.88;2.70;;;;;;;19.16;54.77;100979.81;2081470;28;20041;-74
2022/09/16 03:45:44;;;;;;;4.22;2.97;;;;;;;19.21;54.51;100985.09;2093317;28;20500;-75
2022/09/16 03:47:06;;;;;;;26.33;5.05;;;;;;;19.22;54.15;100981.53;2098128;28;20047;-74
2022/09/16 03:48:29;;;;;;;6.72;2.65;;;;;;;19.22;54.29;100978.84;2089944;28;20037;-74
2022/09/16 03:49:52;;;;;;;4.75;2.40;;;;;;;19.23;54.06;100984.16;2087391;28;20106;-74
2022/09/16 03:51:16;;;;;;;5.53;2.70;;;;;;;19.23;53.96;100978.78;2095698;28;20048;-74
2022/09/16 03:52:39;;;;;;;5.95;2.97;;;;;;;19.23;54.29;100983.28;2081487;28;20046;-74
2022/09/16 03:54:01;;;;;;;5.65;2.88;;;;;;;19.22;54.22;100986.88;2079318;28;20092;-74
2022/09/16 03:55:22;;;;;;;4.70;3.20;;;;;;;19.20;54.51;100994.03;2093058;28;20048;-74
2022/09/16 03:56:45;;;;;;;5.40;3.20;;;;;;;19.16;54.62;100990.53;2089987;28;20064;-74
2022/09/16 03:58:07;;;;;;;5.50;3.30;;;;;;;19.13;55.20;100995.91;2095542;28;20147;-74
2022/09/16 03:59:30;;;;;;;4.97;3.40;;;;;;;19.10;55.50;100988.81;2089772;28;20072;-74
2022/09/16 04:00:52;;;;;;;4.80;2.97;;;;;;;19.10;55.36;100994.16;2095450;28;20056;-75
2022/09/16 04:02:14;;;;;;;6.45;2.72;;;;;;;19.10;55.19;100988.81;2073388;28;20042;-74
2022/09/16 04:03:37;;;;;;;4.28;2.60;;;;;;;19.11;54.93;100997.72;2089841;28;20048;-74
2022/09/16 04:04:59;;;;;;;3.88;2.50;;;;;;;19.13;54.74;100993.25;2089288;28;20045;-73
2022/09/16 04:06:21;;;;;;;6.63;3.38;;;;;;;19.15;54.73;101001.25;2087171;28;20654;-74
2022/09/16 04:07:45;;;;;;;4.85;2.90;;;;;;;19.15;54.48;101002.16;2079000;28;20485;-74
2022/09/16 04:09:08;;;;;;;5.40;3.20;;;;;;;19.16;54.88;101005.72;2084615;28;20051;-74
2022/09/16 04:10:33;;;;;;;5.43;3.30;;;;;;;19.17;54.69;100999.41;2079076;28;20096;-74
2022/09/16 04:11:56;;;;;;;4.95;2.63;;;;;;;19.18;54.92;101001.19;2093663;28;20131;-74
2022/09/16 04:13:17;;;;;;;5.60;2.95;;;;;;;19.19;54.88;101003.84;2081533;28;20102;-73
2022/09/16 04:14:40;;;;;;;4.25;2.78;;;;;;;19.23;54.85;101007.38;2092654;28;20126;-74
2022/09/16 04:16:03;;;;;;;4.05;2.05;;;;;;;19.31;54.58;101008.13;2081538;28;20050;-74
2022/09/16 04:17:25;;;;;;;4.70;2.53;;;;;;;19.37;54.29;101010.69;2093033;28;20485;-74
2022/09/16 04:18:48;;;;;;;5.28;2.72;;;;;;;19.43;53.90;101014.16;2081339;28;20048;-74
2022/09/16 04:20:10;;;;;;;4.28;2.42;;;;;;;19.49;53.82;101007.88;2093017;28;20048;-74
2022/09/16 04:21:32;;;;;;;4.65;2.75;;;;;;;19.57;53.94;100999.69;2089690;28;20099;-74
2022/09/16 04:22:57;;;;;;;4.70;2.65;;;;;;;19.69;53.81;101005.69;2078978;28;20148;-74
2022/09/16 04:24:19;;;;;;;6.07;2.70;;;;;;;19.80;53.73;101001.06;2084853;28;20431;-74
2022/09/16 04:25:41;;;;;;;4.68;2.80;;;;;;;19.93;53.55;101004.38;2095301;28;20044;-74
2022/09/16 04:27:03;;;;;;;3.70;2.25;;;;;;;20.04;53.40;101010.41;2089630;28;20057;-74
2022/09/16 04:28:25;;;;;;;6.47;2.88;;;;;;;20.17;53.19;101003.00;2095489;28;20037;-74
2022/09/16 04:29:47;;;;;;;5.07;2.50;;;;;;;20.29;53.21;101003.66;2089789;28;20083;-74
2022/09/16 04:31:11;;;;;;;3.90;2.60;;;;;;;20.42;52.94;101000.75;2095383;28;20040;-74
2022/09/16 04:32:34;;;;;;;3.90;2.63;;;;;;;20.53;52.74;100999.63;2089619;28;20048;-74
2022/09/16 04:33:55;;;;;;;4.60;2.38;;;;;;;20.65;52.75;100995.78;2095261;28;20064;-74
2022/09/16 04:35:18;;;;;;;5.50;2.20;;;;;;;20.76;52.59;100988.38;2081553;28;20076;-74
2022/09/16 04:36:41;;;;;;;3.50;2.33;;;;;;;20.87;52.21;100994.38;2092903;28;20053;-74
2022/09/16 04:38:05;;;;;;;3.95;2.67;;;;;;;20.98;52.00;100997.69;2089799;28;20521;-74
2022/09/16 04:39:26;;;;;;;4.10;2.28;;;;;;;21.07;51.90;100992.09;2095550;28;20077;-75
2022/09/16 04:40:49;;;;;;;6.20;2.55;;;;;;;21.17;51.95;100995.50;2089555;28;20049;-74
2022/09/16 04:42:12;;;;;;;2.97;2.17;;;;;;;21.29;52.05;100994.31;2095257;28;20105;-74
2022/09/16 04:43:33;;;;;;;3.50;1.98;;;;;;;21.38;51.69;100988.72;2089615;28;20037;-74
2022/09/16 04:44:56;;;;;;;4.28;2.35;;;;;;;21.47;51.70;101000.09;2087051;28;20044;-74
2022/09/16 04:46:19;;;;;;;3.40;2.25;;;;;;;21.59;51.64;101003.41;2081340;28;20057;-74
2022/09/16 04:47:42;;;;;;;3.22;2.08;;;;;;;21.70;51.30;100999.50;2086758;28;20136;-74
2022/09/16 04:49:04;;;;;;;4.53;2.22;;;;;;;21.82;50.93;100995.59;2095195;28;20045;-75
2022/09/16 04:50:26;;;;;;;3.28;2.20;;;;;;;21.96;50.55;100990.78;2089567;28;20063;-74
2022/09/16 04:51:49;;;;;;;5.35;2.60;;;;;;;22.05;50.41;100986.97;2095371;28;20127;-74
2022/09/16 04:53:12;;;;;;;4.43;1.90;;;;;;;22.14;50.53;100994.75;2089512;28;20052;-75
2022/09/16 04:54:34;;;;;;;3.08;2.10;;;;;;;22.24;50.53;100988.19;2081235;28;20049;-74
2022/09/16 04:56:03;;;;;;;3.45;1.90;;;;;;;22.38;50.53;100988.69;2086925;28;20045;-74
2022/09/16 04:57:25;;;;;;;2.50;1.98;;;;;;;22.48;50.47;100992.84;2087822;28;20044;-74
2022/09/16 04:58:51;;;;;;;3.63;2.00;;;;;;;22.62;50.46;100990.63;2078700;28;20045;-74
2022/09/16 05:00:13;;;;;;;3.63;1.83;;;;;;;22.72;50.20;100985.84;2085114;28;20168;-75
2022/09/16 05:01:38;;;;;;;3.08;2.03;;;;;;;22.83;50.16;100989.13;2095094;28;20421;-74
2022/09/16 05:03:00;;;;;;;3.97;2.17;;;;;;;22.94;49.86;100988.78;2089695;28;20045;-74
2022/09/16 05:04:23;;;;;;;4.72;2.20;;;;;;;23.05;49.69;100984.81;2086831;28;20478;-75
2022/09/16 05:05:44;;;;;;;3.00;1.80;;;;;;;23.19;49.15;100991.56;2095280;28;20041;-75
2022/09/16 05:07:07;;;;;;;3.60;1.88;;;;;;;23.33;48.90;100979.41;2089379;28;20424;-75
2022/09/16 05:08:32;;;;;;;7.50;2.17;;;;;;;23.47;48.28;100972.66;2086879;28;20176;-75
2022/09/16 05:09:54;;;;;;;2.92;2.08;;;;;;;23.57;48.22;100976.84;2087091;28;20053;-74
2022/09/16 05:11:17;;;;;;;3.33;2.25;;;;;;;23.68;47.94;100975.53;2086928;28;20045;-75
2022/09/16 05:12:40;;;;;;;3.35;2.00;;;;;;;23.78;47.67;100971.56;2087068;28;20049;-74
2022/09/16 05:14:04;;;;;;;4.22;1.90;;;;;;;23.90;47.81;100969.38;2094960;28;20094;-75
2022/09/16 05:15:27;;;;;;;3.20;1.80;;;;;;;24.01;47.82;100967.19;2081250;28;20041;-75
2022/09/16 05:16:50;;;;;;;2.33;1.48;;;;;;;24.08;47.58;100966.91;2094037;28;20052;-74
2022/09/16 05:18:11;;;;;;;3.70;1.85;;;;;;;24.18;47.22;100971.00;2091038;28;20140;-74
2022/09/16 05:19:33;;;;;;;3.58;1.75;;;;;;;24.27;47.20;100966.25;2082823;28;20037;-75
2022/09/16 05:20:57;;;;;;;4.13;1.80;;;;;;;24.39;47.27;100969.38;2088284;28;20045;-74
2022/09/16 05:22:19;;;;;;;3.78;1.65;;;;;;;24.50;46.70;100969.81;2096555;28;20047;-75
2022/09/16 05:23:43;;;;;;;2.22;1.65;;;;;;;24.64;46.09;100969.28;2082623;28;20064;-75
2022/09/16 05:25:07;;;;;;;2.47;1.60;;;;;;;24.74;45.80;100969.81;2094177;28;20044;-75
2022/09/16 05:26:30;;;;;;;2.05;1.40;;;;;;;24.85;45.22;100965.75;2099215;28;20041;-75
2022/09/16 05:27:53;;;;;;;2.03;1.60;;;;;;;24.97;45.20;100959.00;2082729;28;20107;-75
2022/09/16 05:29:17;;;;;;;4.57;1.90;;;;;;;25.09;44.94;100963.91;2093783;28;20543;-75
2022/09/16 05:30:39;;;;;;;5.38;1.75;;;;;;;25.20;44.75;100966.19;2091088;28;20457;-74
2022/09/16 05:32:02;;;;;;;3.53;1.60;;;;;;;25.31;44.52;100956.66;2088307;28;20060;-74
2022/09/16 05:33:24;;;;;;;5.38;1.73;;;;;;;25.40;44.07;100961.66;2082674;28;20537;-74
2022/09/16 05:34:48;;;;;;;8.25;1.88;;;;;;;25.54;44.25;100965.59;2088147;28;20061;-75
2022/09/16 05:36:12;;;;;;;7.28;1.95;;;;;;;25.67;44.66;100964.16;2091030;28;20045;-74
2022/09/16 05:37:35;;;;;;;6.53;2.03;;;;;;;25.79;44.72;100966.34;2091030;28;20147;-75
2022/09/16 05:38:58;;;;;;;4.03;1.80;;;;;;;25.94;44.90;100962.06;2079907;28;20049;-74
2022/09/16 05:40:21;;;;;;;6.05;1.85;;;;;;;26.07;44.62;100952.44;2085857;28;20102;-75
2022/09/16 05:41:43;;;;;;;3.15;1.52;;;;;;;26.22;44.56;100959.88;2088400;28;20048;-75
2022/09/16 05:43:05;;;;;;;2.22;1.40;;;;;;;26.35;43.94;100952.97;2088064;28;20052;-74
2022/09/16 05:44:28;;;;;;;2.92;1.55;;;;;;;26.54;43.49;100953.00;2088214;28;20045;-74
2022/09/16 05:45:50;;;;;;;2.78;1.58;;;;;;;26.73;42.69;100951.16;2096603;28;20048;-75
2022/09/16 05:47:13;;;;;;;2.67;1.88;;;;;;;26.90;42.17;100956.69;2098919;28;20051;-74
2022/09/16 05:48:35;;;;;;;2.50;1.52;;;;;;;27.08;41.60;100959.44;2082528;28;20087;-75
2022/09/16 05:49:57;;;;;;;2.72;1.70;;;;;;;27.22;41.34;100959.63;2077249;28;20049;-75
2022/09/16 05:51:22;;;;;;;4.82;1.88;;;;;;;27.36;40.92;100962.53;2093903;28;20040;-75
2022/09/16 05:52:44;;;;;;;1.88;1.42;;;;;;;27.47;40.76;100957.41;2090806;28;20045;-75
2022/09/16 05:54:09;;;;;;;4.25;1.48;;;;;;;27.61;40.53;100948.59;2096359;28;20086;-75
2022/09/16 05:55:31;;;;;;;4.40;1.58;;;;;;;27.72;40.38;100951.63;2099154;28;20041;-74
2022/09/16 05:56:54;;;;;;;5.68;2.10;;;;;;;27.81;40.10;100951.16;2082559;28;20037;-75
2022/09/16 05:58:16;;;;;;;4.35;1.83;;;;;;;27.97;39.49;100945.78;2093899;28;20040;-75
2022/09/16 05:59:39;;;;;;;2.88;1.60;;;;;;;28.15;38.71;100950.28;2090912;28;20532;-75
2022/09/16 06:01:04;;;;;;;2.35;1.60;;;;;;;28.31;38.37;100942.16;2088111;28;20254;-75
2022/09/16 06:02:26;;;;;;;5.50;1.80;;;;;;;28.46;37.97;100946.75;2090737;28;20072;-75
2022/09/16 06:03:49;;;;;;;4.07;1.75;;;;;;;28.59;37.74;100944.22;2096131;28;20097;-75
2022/09/16 06:05:12;;;;;;;2.65;1.60;;;;;;;28.73;37.79;100938.88;2082340;28;20046;-75
2022/09/16 06:06:36;;;;;;;9.02;3.38;;;;;;;28.87;37.66;100939.88;2093834;28;20141;-75
2022/09/16 06:07:58;;;;;;;6.63;1.75;;;;;;;29.01;37.23;100936.38;2082503;28;20499;-74
2022/09/16 06:09:25;;;;;;;4.22;1.75;;;;;;;29.21;35.94;100940.63;2093570;28;20045;-74
2022/09/16 06:10:46;;;;;;;6.13;1.83;;;;;;;29.38;35.63;100936.94;2082523;28;20045;-74
2022/09/16 06:12:10;;;;;;;4.72;2.25;;;;;;;29.52;34.89;100928.81;2093464;28;20531;-75
2022/09/16 06:13:32;;;;;;;3.90;1.88;;;;;;;29.67;34.69;100938.75;2098855;28;20487;-74
2022/09/16 06:14:54;;;;;;;3.22;1.73;;;;;;;29.75;34.23;100935.56;2082353;28;20196;-75
2022/09/16 06:16:15;;;;;;;4.88;1.70;;;;;;;29.86;33.95;100931.25;2087991;28;20045;-74
2022/09/16 06:17:38;;;;;;;5.22;2.03;;;;;;;29.98;34.27;100935.97;2087978;28;20052;-75
2022/09/16 06:19:02;;;;;;;8.77;2.40;;;;;;;30.16;33.79;100928.47;2096137;28;20053;-74
2022/09/16 06:20:24;;;;;;;2.33;1.60;;;;;;;30.26;33.84;100931.50;2090567;28;20485;-74
2022/09/16 06:21:48;;;;;;;3.70;1.83;;;;;;;30.37;33.15;100932.56;2096034;28;20052;-74
2022/09/16 06:23:09;;;;;;;10.77;2.53;;;;;;;30.51;33.17;100930.84;2090700;28;20174;-75
2022/09/16 06:24:33;;;;;;;7.15;2.03;;;;;;;30.62;32.89;100936.47;2096021;28;20136;-75
2022/09/16 06:26:00;;;;;;;10.23;1.60;;;;;;;30.79;32.75;100936.22;2098782;28;20053;-74
2022/09/16 06:27:23;;;;;;;4.80;2.03;;;;;;;30.95;32.62;100939.69;2089636;28;20080;-75
2022/09/16 06:28:46;;;;;;;3.88;2.10;;;;;;;31.09;32.43;100942.41;2096101;28;20040;-75
2022/09/16 06:30:09;;;;;;;1.88;1.48;;;;;;;31.24;31.17;100935.91;2082330;28;20049;-75
2022/09/16 06:31:32;;;;;;;3.08;1.50;;;;;;;31.37;30.77;100941.44;2093587;28;20081;-74
2022/09/16 06:32:53;;;;;;;3.10;1.40;;;;;;;31.39;31.08;100944.91;2090396;28;20041;-75
2022/09/16 06:34:17;;;;;;;3.13;1.35;;;;;;;31.41;31.15;100944.81;2087562;28;20049;-74
2022/09/16 06:35:40;;;;;;;3.38;1.58;;;;;;;31.45;31.24;100944.50;2088217;28;20080;-74
2022/09/16 06:37:02;;;;;;;2.85;1.70;;;;;;;31.54;31.35;100945.72;2087811;28;20083;-75